Time;durP1;ratioP1;P1;durP2;ratioP2;P2;SDS_P1;SDS_P2;PMS_P1;PMS_P2;Temp;Humidity;BMP_temperature;BMP_pressure;BME280_temperature;BME280_humidity;BME280_pressure;Samples;Min_cycle;Max_cycle;Signal;HPM_P1;HPM_P2
2021/10/07 00:00:49;;;;;;;9.45;7.30;;;;;;;;;;5080182;28;20060;-85
2021/10/07 00:03:17;;;;;;;;;;;;;;;;;;5079228;28;20079;-85
2021/10/07 00:06:03;;;;;;;8.68;6.25;;;;;;;;;;5079554;28;19959;-85
2021/10/07 00:08:34;;;;;;;8.30;6.10;;;;;;;;;;5078855;28;20065;-85
2021/10/07 00:11:21;;;;;;;10.18;6.15;;;;;;;;;;5077384;28;20048;-85
2021/10/07 00:13:56;;;;;;;9.40;5.90;;;;;;;;;;5077658;28;20070;-84
2021/10/07 00:16:23;;;;;;;9.23;6.05;;;;;;;;;;5080196;28;20045;-85
2021/10/07 00:18:57;;;;;;;11.45;6.13;;;;;;;;;;5077103;28;20274;-84
2021/10/07 00:21:36;;;;;;;12.57;6.57;;;;;;;;;;5077762;28;20052;-85
2021/10/07 00:24:10;;;;;;;10.07;6.63;;;;;;;;;;5078772;28;20052;-85
2021/10/07 00:26:41;;;;;;;9.53;6.60;;;;;;;;;;5076556;28;20059;-85
2021/10/07 00:40:25;;;;;;;8.40;6.00;;;;;;;;;;5080541;28;20489;-85
2021/10/07 00:43:04;;;;;;;10.07;5.70;;;;;;;;;;5078991;28;20465;-85
2021/10/07 00:45:30;;;;;;;11.15;7.00;;;;;;;;;;5078730;28;20052;-85
2021/10/07 00:47:57;;;;;;;11.15;6.97;;;;;;;;;;5079334;28;20084;-85
2021/10/07 00:50:24;;;;;;;10.57;6.45;;;;;;;;;;5077141;28;20321;-85
2021/10/07 00:52:51;;;;;;;11.50;6.43;;;;;;;;;;5076868;28;20056;-85
2021/10/07 00:55:19;;;;;;;11.25;7.07;;;;;;;;;;5077641;28;20063;-85
2021/10/07 00:57:48;;;;;;;8.77;6.15;;;;;;;;;;5079859;28;20080;-85
2021/10/07 01:00:18;;;;;;;14.02;7.35;;;;;;;;;;5083670;28;20080;-84
2021/10/07 01:02:51;;;;;;;11.35;6.78;;;;;;;;;;5090031;28;20048;-85
2021/10/07 01:05:22;;;;;;;10.00;6.82;;;;;;;;;;5089405;28;20056;-85
2021/10/07 01:07:49;;;;;;;11.98;7.32;;;;;;;;;;5081525;28;20505;-85
2021/10/07 01:10:16;;;;;;;12.82;7.38;;;;;;;;;;5080941;28;20068;-85
2021/10/07 01:12:43;;;;;;;8.77;6.20;;;;;;;;;;5078813;28;20075;-85
2021/10/07 01:15:14;;;;;;;10.07;6.32;;;;;;;;;;5078820;28;20048;-85
2021/10/07 01:17:41;;;;;;;11.20;7.47;;;;;;;;;;5078811;28;20044;-85
2021/10/07 01:20:08;;;;;;;10.73;6.68;;;;;;;;;;5078374;28;20079;-85
2021/10/07 01:22:37;;;;;;;11.57;6.68;;;;;;;;;;5079265;28;20079;-85
2021/10/07 01:25:05;;;;;;;12.13;7.57;;;;;;;;;;5078516;28;20053;-86
2021/10/07 01:27:33;;;;;;;12.38;6.63;;;;;;;;;;5079676;28;20416;-86
2021/10/07 01:30:01;;;;;;;11.13;6.60;;;;;;;;;;5080342;28;20052;-85
2021/10/07 01:32:32;;;;;;;11.25;7.18;;;;;;;;;;5080226;28;20074;-85
2021/10/07 01:34:59;;;;;;;18.60;7.35;;;;;;;;;;5081010;28;20079;-85
2021/10/07 01:37:25;;;;;;;13.00;7.63;;;;;;;;;;5080791;28;20087;-85
2021/10/07 01:39:58;;;;;;;13.48;7.72;;;;;;;;;;5082201;28;20075;-85
2021/10/07 01:42:26;;;;;;;12.07;7.63;;;;;;;;;;5079330;28;20055;-86
2021/10/07 01:44:53;;;;;;;13.55;7.20;;;;;;;;;;5078272;28;20102;-86
2021/10/07 01:47:20;;;;;;;9.68;6.55;;;;;;;;;;5080105;28;20052;-86
2021/10/07 01:49:47;;;;;;;10.98;7.22;;;;;;;;;;5080514;28;20044;-86
2021/10/07 01:52:14;;;;;;;12.68;7.80;;;;;;;;;;5081466;28;20432;-86
2021/10/07 01:54:40;;;;;;;15.10;9.02;;;;;;;;;;5080508;28;20094;-84
2021/10/07 01:57:16;;;;;;;16.40;8.63;;;;;;;;;;5080599;28;20052;-84
2021/10/07 01:59:45;;;;;;;15.48;8.75;;;;;;;;;;5079730;28;20048;-84
2021/10/07 02:02:12;;;;;;;14.02;8.13;;;;;;;;;;5077435;28;20257;-84
2021/10/07 02:04:45;;;;;;;14.75;8.48;;;;;;;;;;5079722;28;20044;-84
2021/10/07 02:07:11;;;;;;;11.55;7.78;;;;;;;;;;5079797;28;20070;-84
2021/10/07 02:09:38;;;;;;;13.82;7.93;;;;;;;;;;5079195;28;20060;-84
2021/10/07 02:12:05;;;;;;;14.15;8.07;;;;;;;;;;5082857;28;20048;-84
2021/10/07 02:14:33;;;;;;;15.25;8.20;;;;;;;;;;5092235;28;20062;-84
2021/10/07 02:16:59;;;;;;;14.63;8.10;;;;;;;;;;5093874;28;20047;-84
2021/10/07 02:19:32;;;;;;;12.70;8.35;;;;;;;;;;5080512;28;20454;-84
2021/10/07 02:22:04;;;;;;;12.02;7.47;;;;;;;;;;5079872;28;20500;-84
2021/10/07 02:24:31;;;;;;;13.90;8.70;;;;;;;;;;5082606;28;20043;-82
2021/10/07 02:26:57;;;;;;;14.55;8.48;;;;;;;;;;5092184;28;20040;-83
2021/10/07 02:29:24;;;;;;;13.57;8.73;;;;;;;;;;5090251;28;20059;-84
2021/10/07 02:31:50;;;;;;;15.60;8.98;;;;;;;;;;5091670;28;20213;-84
2021/10/07 02:34:17;;;;;;;16.73;8.82;;;;;;;;;;5083663;28;20110;-84
2021/10/07 02:36:44;;;;;;;11.07;8.00;;;;;;;;;;5081275;28;20048;-84
2021/10/07 02:39:14;;;;;;;14.40;9.40;;;;;;;;;;5080035;28;20428;-84
2021/10/07 02:41:41;;;;;;;12.25;7.82;;;;;;;;;;5080864;28;20227;-86
2021/10/07 02:44:07;;;;;;;13.30;8.60;;;;;;;;;;5078516;28;20060;-85
2021/10/07 02:46:34;;;;;;;15.30;8.60;;;;;;;;;;5076370;28;20214;-84
2021/10/07 02:49:01;;;;;;;14.27;8.68;;;;;;;;;;5075590;28;20048;-85
2021/10/07 02:51:31;;;;;;;13.95;9.23;;;;;;;;;;5076940;28;20071;-84
2021/10/07 02:53:58;;;;;;;12.50;8.40;;;;;;;;;;5079004;28;20098;-84
2021/10/07 02:56:25;;;;;;;11.32;7.43;;;;;;;;;;5079036;28;20052;-84
2021/10/07 02:59:01;;;;;;;15.30;9.00;;;;;;;;;;5077785;28;20052;-84
2021/10/07 03:01:27;;;;;;;13.25;7.93;;;;;;;;;;5078168;28;20048;-84
2021/10/07 03:03:54;;;;;;;11.02;7.25;;;;;;;;;;5077890;28;20131;-85
2021/10/07 03:06:21;;;;;;;12.25;6.57;;;;;;;;;;5078020;28;20062;-84
2021/10/07 03:08:48;;;;;;;11.32;6.57;;;;;;;;;;5084868;28;20060;-84
2021/10/07 03:11:15;;;;;;;12.10;7.65;;;;;;;;;;5097820;28;20142;-84
2021/10/07 03:13:41;;;;;;;36.83;9.60;;;;;;;;;;5097643;28;20139;-84
2021/10/07 03:16:08;;;;;;;10.90;7.72;;;;;;;;;;5079670;28;20058;-84
2021/10/07 03:18:35;;;;;;;13.55;8.82;;;;;;;;;;5079473;28;20083;-84
2021/10/07 03:21:02;;;;;;;17.00;9.10;;;;;;;;;;5098216;28;20535;-84
2021/10/07 03:23:29;;;;;;;10.68;7.65;;;;;;;;;;5081082;28;20428;-84
2021/10/07 03:25:55;;;;;;;10.68;7.55;;;;;;;;;;5081273;28;20496;-84
2021/10/07 03:28:22;;;;;;;17.75;8.20;;;;;;;;;;5097363;28;20048;-84
2021/10/07 03:30:48;;;;;;;17.20;7.93;;;;;;;;;;5095721;28;20062;-85
2021/10/07 03:33:28;;;;;;;13.00;7.68;;;;;;;;;;5097962;28;20049;-85
2021/10/07 03:35:55;;;;;;;13.27;8.65;;;;;;;;;;5079440;28;20048;-84
2021/10/07 03:38:21;;;;;;;16.55;9.60;;;;;;;;;;5078795;28;20124;-84
2021/10/07 03:40:48;;;;;;;17.88;9.27;;;;;;;;;;5098204;28;20052;-85
2021/10/07 03:43:17;;;;;;;14.23;9.30;;;;;;;;;;5098439;28;20167;-86
2021/10/07 03:45:44;;;;;;;13.98;9.68;;;;;;;;;;5084036;28;20105;-84
2021/10/07 03:48:11;;;;;;;17.42;10.00;;;;;;;;;;5099964;28;20052;-84
2021/10/07 03:50:41;;;;;;;13.00;9.23;;;;;;;;;;5084296;28;20048;-85
2021/10/07 03:53:07;;;;;;;17.13;10.77;;;;;;;;;;5081379;28;20336;-84
2021/10/07 03:55:34;;;;;;;13.23;8.65;;;;;;;;;;5082633;28;20047;-85
2021/10/07 03:58:00;;;;;;;11.07;8.25;;;;;;;;;;5081818;28;20048;-85
2021/10/07 04:00:27;;;;;;;16.70;9.27;;;;;;;;;;5081467;28;20051;-85
2021/10/07 04:02:57;;;;;;;15.05;8.75;;;;;;;;;;5082277;28;20109;-85
2021/10/07 04:05:30;;;;;;;13.85;8.95;;;;;;;;;;5082253;28;20062;-85
2021/10/07 04:07:59;;;;;;;12.53;8.00;;;;;;;;;;5081009;28;20446;-85
2021/10/07 04:10:27;;;;;;;12.90;9.18;;;;;;;;;;5098778;28;20107;-85
2021/10/07 04:12:54;;;;;;;11.93;8.27;;;;;;;;;;5081946;28;20044;-85
2021/10/07 04:15:20;;;;;;;11.88;8.10;;;;;;;;;;5081217;28;20048;-84
2021/10/07 04:17:47;;;;;;;13.32;8.43;;;;;;;;;;5098402;28;20127;-85
2021/10/07 04:20:14;;;;;;;11.13;9.00;;;;;;;;;;5080320;28;20040;-85
2021/10/07 04:22:40;;;;;;;14.68;8.80;;;;;;;;;;5080739;28;20048;-85
2021/10/07 04:25:10;;;;;;;14.98;8.73;;;;;;;;;;5081415;28;20056;-84
2021/10/07 04:27:36;;;;;;;13.13;8.45;;;;;;;;;;5080168;28;20048;-84
2021/10/07 04:30:04;;;;;;;11.15;7.75;;;;;;;;;;5081003;28;20044;-84
2021/10/07 04:32:31;;;;;;;10.45;7.68;;;;;;;;;;5079111;28;20059;-84
2021/10/07 04:34:57;;;;;;;12.75;8.18;;;;;;;;;;5079798;28;20054;-86
2021/10/07 04:37:29;;;;;;;15.23;8.60;;;;;;;;;;5079565;28;20048;-85
2021/10/07 04:39:56;;;;;;;12.77;8.73;;;;;;;;;;5096478;28;20060;-86
2021/10/07 04:42:22;;;;;;;13.98;8.27;;;;;;;;;;5096534;28;20112;-86
2021/10/07 04:44:49;;;;;;;11.77;8.38;;;;;;;;;;5077490;28;20231;-85
2021/10/07 04:47:16;;;;;;;10.18;7.93;;;;;;;;;;5092725;28;20065;-86
2021/10/07 04:49:43;;;;;;;13.95;8.23;;;;;;;;;;5070148;28;20786;-86
2021/10/07 04:52:09;;;;;;;15.50;8.23;;;;;;;;;;5074619;28;20531;-85
2021/10/07 04:54:36;;;;;;;13.48;9.23;;;;;;;;;;5094125;28;20054;-85
2021/10/07 04:57:03;;;;;;;14.27;8.75;;;;;;;;;;5105912;28;20129;-85
2021/10/07 04:59:29;;;;;;;12.77;7.85;;;;;;;;;;5096044;28;20101;-85
2021/10/07 05:01:56;;;;;;;14.48;9.05;;;;;;;;;;5094677;28;20054;-85
2021/10/07 05:04:23;;;;;;;13.07;8.60;;;;;;;;;;5075766;28;20048;-86
2021/10/07 05:06:49;;;;;;;14.70;8.57;;;;;;;;;;5077604;28;20063;-86
2021/10/07 05:09:17;;;;;;;15.38;9.15;;;;;;;;;;5071320;28;20060;-86
2021/10/07 05:11:44;;;;;;;13.23;8.40;;;;;;;;;;5070929;28;20051;-85
2021/10/07 05:14:10;;;;;;;19.35;10.27;;;;;;;;;;5052708;28;20044;-85
2021/10/07 05:16:37;;;;;;;18.48;9.18;;;;;;;;;;5069979;28;20078;-85
2021/10/07 05:19:04;;;;;;;14.05;9.05;;;;;;;;;;5063490;28;20071;-85
2021/10/07 05:21:31;;;;;;;16.33;10.18;;;;;;;;;;5087867;28;20063;-84
2021/10/07 05:23:58;;;;;;;15.25;9.80;;;;;;;;;;5075531;28;20040;-86
2021/10/07 05:26:24;;;;;;;19.33;9.50;;;;;;;;;;5090331;28;20447;-84
2021/10/07 05:28:51;;;;;;;12.23;8.75;;;;;;;;;;5090496;28;20048;-84
2021/10/07 05:31:21;;;;;;;12.65;7.95;;;;;;;;;;5088411;28;20110;-85
2021/10/07 05:33:48;;;;;;;15.07;7.97;;;;;;;;;;5067180;28;20060;-85
2021/10/07 05:36:15;;;;;;;14.07;8.00;;;;;;;;;;5055059;28;20277;-86
2021/10/07 05:38:44;;;;;;;13.82;8.48;;;;;;;;;;5080372;28;20039;-85
2021/10/07 05:41:14;;;;;;;14.13;8.07;;;;;;;;;;5102871;28;20040;-84
2021/10/07 05:43:43;;;;;;;13.70;8.90;;;;;;;;;;5056090;28;20194;-84
2021/10/07 05:46:12;;;;;;;14.30;7.63;;;;;;;;;;5054745;28;20078;-85
2021/10/07 05:48:38;;;;;;;14.05;8.63;;;;;;;;;;5068484;28;20051;-85
2021/10/07 05:51:05;;;;;;;13.07;9.65;;;;;;;;;;5086531;28;20109;-85
2021/10/07 05:53:32;;;;;;;20.75;9.23;;;;;;;;;;5074567;28;20123;-85
2021/10/07 05:55:59;;;;;;;14.35;9.63;;;;;;;;;;5069664;28;20205;-86
2021/10/07 05:58:27;;;;;;;13.18;9.55;;;;;;;;;;5088315;28;20059;-86
2021/10/07 06:01:02;;;;;;;18.55;10.98;;;;;;;;;;5091471;28;20203;-86
2021/10/07 06:03:35;;;;;;;19.13;9.90;;;;;;;;;;5052172;28;20075;-85
2021/10/07 06:06:02;;;;;;;15.85;10.27;;;;;;;;;;5046970;28;20083;-86
2021/10/07 06:08:31;;;;;;;14.80;8.95;;;;;;;;;;5068555;28;20446;-84
2021/10/07 06:11:04;;;;;;;12.75;8.90;;;;;;;;;;5054049;28;20263;-87
2021/10/07 06:13:34;;;;;;;20.38;9.32;;;;;;;;;;5053248;28;20045;-85
2021/10/07 06:16:08;;;;;;;11.65;7.97;;;;;;;;;;5070186;28;20102;-84
2021/10/07 06:18:40;;;;;;;13.98;7.43;;;;;;;;;;5091455;28;20300;-85
2021/10/07 06:21:07;;;;;;;11.73;8.05;;;;;;;;;;5089467;28;20228;-85
2021/10/07 06:23:53;;;;;;;;;;;;;;;;;;5067442;28;20094;-85
2021/10/07 06:26:35;;;;;;;11.07;7.10;;;;;;;;;;5076501;28;19920;-84
2021/10/07 06:29:06;;;;;;;11.15;7.45;;;;;;;;;;5071114;28;20051;-86
2021/10/07 06:31:33;;;;;;;14.13;7.35;;;;;;;;;;5089496;28;20126;-84
2021/10/07 06:34:10;;;;;;;14.85;7.00;;;;;;;;;;5075658;28;20045;-84
2021/10/07 06:37:19;;;;;;;9.70;6.80;;;;;;;;;;5077047;28;20040;-86
2021/10/07 06:40:32;;;;;;;;;;;;;;;;;;;;;
2021/10/07 06:43:35;;;;;;;10.00;5.15;;;;;;;;;;5083195;28;20507;-85
2021/10/07 06:46:33;;;;;;;9.10;4.78;;;;;;;;;;5050752;28;20212;-85
2021/10/07 06:49:11;;;;;;;11.05;4.88;;;;;;;;;;5072223;28;20160;-85
2021/10/07 06:51:50;;;;;;;12.07;5.93;;;;;;;;;;5069140;28;20060;-86
2021/10/07 06:54:44;;;;;;;7.82;5.00;;;;;;;;;;5067837;28;20048;-85
2021/10/07 06:57:28;;;;;;;13.32;5.25;;;;;;;;;;5070191;28;20153;-84
2021/10/07 07:00:21;;;;;;;5.43;4.50;;;;;;;;;;5070924;28;20065;-84
2021/10/07 07:02:58;;;;;;;7.05;3.88;;;;;;;;;;5070774;28;20131;-85
2021/10/07 07:05:43;;;;;;;10.25;4.45;;;;;;;;;;5078725;28;20265;-85
2021/10/07 07:08:20;;;;;;;9.15;4.05;;;;;;;;;;5069187;28;20076;-85
2021/10/07 07:10:55;;;;;;;11.27;3.83;;;;;;;;;;5068872;28;20056;-85
2021/10/07 07:13:24;;;;;;;8.77;3.72;;;;;;;;;;5052120;28;20265;-84
2021/10/07 07:15:53;;;;;;;9.27;4.15;;;;;;;;;;5066408;28;20159;-84
2021/10/07 07:18:20;;;;;;;6.38;3.40;;;;;;;;;;5051304;28;20055;-85
2021/10/07 07:20:50;;;;;;;4.75;3.30;;;;;;;;;;5054018;28;20455;-84
2021/10/07 07:23:20;;;;;;;8.88;3.45;;;;;;;;;;5053394;28;20040;-84
2021/10/07 07:25:47;;;;;;;9.05;3.60;;;;;;;;;;5071436;28;20324;-84
2021/10/07 07:28:14;;;;;;;5.35;3.78;;;;;;;;;;5072959;28;20116;-84
2021/10/07 07:30:41;;;;;;;10.50;3.63;;;;;;;;;;5072282;28;20052;-84
2021/10/07 07:33:08;;;;;;;9.80;3.90;;;;;;;;;;5071540;28;20068;-84
2021/10/07 07:35:38;;;;;;;7.65;3.92;;;;;;;;;;5056410;28;20111;-85
2021/10/07 07:38:05;;;;;;;5.65;3.67;;;;;;;;;;5059038;28;20049;-85
2021/10/07 07:40:38;;;;;;;7.65;3.60;;;;;;;;;;5057463;28;20052;-85
2021/10/07 07:43:04;;;;;;;6.75;3.70;;;;;;;;;;5075523;28;20044;-84
2021/10/07 07:45:31;;;;;;;4.82;3.55;;;;;;;;;;5095060;28;20229;-84
2021/10/07 07:48:01;;;;;;;6.07;3.70;;;;;;;;;;5078615;28;20056;-85
2021/10/07 07:50:29;;;;;;;4.82;3.30;;;;;;;;;;5093910;28;20153;-84
2021/10/07 07:52:58;;;;;;;6.60;3.53;;;;;;;;;;5076142;28;20427;-84
2021/10/07 07:55:31;;;;;;;5.70;4.07;;;;;;;;;;5081212;28;20067;-84
2021/10/07 07:57:58;;;;;;;8.80;3.63;;;;;;;;;;5071142;28;20439;-84
2021/10/07 08:00:26;;;;;;;6.40;3.72;;;;;;;;;;5063476;28;20145;-84
2021/10/07 08:02:59;;;;;;;10.13;3.90;;;;;;;;;;5074860;28;20060;-85
2021/10/07 08:05:27;;;;;;;9.82;4.05;;;;;;;;;;5073776;28;20464;-85
2021/10/07 08:07:53;;;;;;;7.40;4.90;;;;;;;;;;5089896;28;20161;-85
2021/10/07 08:10:24;;;;;;;6.93;4.57;;;;;;;;;;5067201;28;20068;-85
2021/10/07 08:12:51;;;;;;;8.13;4.10;;;;;;;;;;5065124;28;20059;-85
2021/10/07 08:15:21;;;;;;;6.03;3.95;;;;;;;;;;5066699;28;20332;-86
2021/10/07 08:17:52;;;;;;;9.15;4.40;;;;;;;;;;5068587;28;20075;-85
2021/10/07 08:20:20;;;;;;;7.38;5.32;;;;;;;;;;5069096;28;20063;-85
2021/10/07 08:22:48;;;;;;;10.10;4.00;;;;;;;;;;5067260;28;20320;-85
2021/10/07 08:25:20;;;;;;;8.57;4.38;;;;;;;;;;5060459;28;20233;-85
2021/10/07 08:27:47;;;;;;;7.70;4.40;;;;;;;;;;5047993;28;20059;-86
2021/10/07 08:30:17;;;;;;;5.45;4.05;;;;;;;;;;5048694;28;20076;-85
2021/10/07 08:32:44;;;;;;;13.38;4.60;;;;;;;;;;5056031;28;20041;-86
2021/10/07 08:35:11;;;;;;;8.95;5.07;;;;;;;;;;5072747;28;20060;-86
2021/10/07 08:37:40;;;;;;;9.05;5.28;;;;;;;;;;5071824;28;20155;-85
2021/10/07 08:40:09;;;;;;;8.45;5.57;;;;;;;;;;5067585;28;20060;-85
2021/10/07 08:42:37;;;;;;;7.55;5.40;;;;;;;;;;5067681;28;20044;-87
2021/10/07 08:45:04;;;;;;;8.10;5.13;;;;;;;;;;5066645;28;20045;-86
2021/10/07 08:47:31;;;;;;;12.38;5.55;;;;;;;;;;5069193;28;20290;-86
2021/10/07 08:50:02;;;;;;;8.02;5.22;;;;;;;;;;5066500;28;20045;-86
2021/10/07 08:52:29;;;;;;;9.55;5.28;;;;;;;;;;5069529;28;20269;-86
2021/10/07 08:54:56;;;;;;;11.95;5.78;;;;;;;;;;5099501;28;20105;-87
2021/10/07 08:57:26;;;;;;;9.98;5.55;;;;;;;;;;5095090;28;20166;-85
2021/10/07 08:59:55;;;;;;;10.38;6.72;;;;;;;;;;5103562;28;20103;-85
2021/10/07 09:02:28;;;;;;;10.25;6.15;;;;;;;;;;5103872;28;20032;-87
2021/10/07 09:05:06;;;;;;;8.00;5.65;;;;;;;;;;5093753;28;20056;-87
2021/10/07 09:07:33;;;;;;;9.98;5.88;;;;;;;;;;5057277;28;20203;-86
2021/10/07 09:09:59;;;;;;;8.20;5.47;;;;;;;;;;5050039;28;20095;-86
2021/10/07 09:12:29;;;;;;;9.30;5.63;;;;;;;;;;5064946;28;20036;-86
2021/10/07 09:14:56;;;;;;;12.20;5.75;;;;;;;;;;5059384;28;20144;-86
2021/10/07 09:17:24;;;;;;;10.93;6.05;;;;;;;;;;5048659;28;20110;-86
2021/10/07 09:19:50;;;;;;;8.13;4.97;;;;;;;;;;5055139;28;20147;-86
2021/10/07 09:22:17;;;;;;;8.93;4.93;;;;;;;;;;5066275;28;20316;-86
2021/10/07 09:24:51;;;;;;;6.80;5.18;;;;;;;;;;5068120;28;20045;-86
2021/10/07 09:27:18;;;;;;;10.18;5.32;;;;;;;;;;5069142;28;20085;-87
2021/10/07 09:29:47;;;;;;;6.40;5.05;;;;;;;;;;5069256;28;20045;-86
2021/10/07 09:32:14;;;;;;;9.40;5.88;;;;;;;;;;5063414;28;20052;-86
2021/10/07 09:34:48;;;;;;;11.05;5.47;;;;;;;;;;5068438;28;20120;-86
2021/10/07 09:37:23;;;;;;;10.23;5.82;;;;;;;;;;5066248;28;20324;-86
2021/10/07 09:39:55;;;;;;;7.35;5.25;;;;;;;;;;5054069;28;20076;-86
2021/10/07 09:42:26;;;;;;;6.80;4.38;;;;;;;;;;5055463;28;20252;-86
2021/10/07 09:45:13;;;;;;;6.88;3.92;;;;;;;;;;5077757;28;20112;-86
2021/10/07 09:47:43;;;;;;;6.57;4.20;;;;;;;;;;5078801;28;20056;-86
2021/10/07 09:50:17;;;;;;;9.48;4.05;;;;;;;;;;5078740;28;20033;-87
2021/10/07 09:52:44;;;;;;;9.55;4.82;;;;;;;;;;5077632;28;20068;-86
2021/10/07 09:55:20;;;;;;;6.18;4.03;;;;;;;;;;5073922;28;20229;-85
2021/10/07 09:57:48;;;;;;;5.32;4.25;;;;;;;;;;5063383;28;20045;-86
2021/10/07 10:00:15;;;;;;;6.68;4.10;;;;;;;;;;5059112;28;20049;-87
2021/10/07 10:02:42;;;;;;;5.93;4.22;;;;;;;;;;5057378;28;20205;-86
2021/10/07 10:05:13;;;;;;;4.82;3.85;;;;;;;;;;5047711;28;20052;-86
2021/10/07 10:07:48;;;;;;;5.70;4.25;;;;;;;;;;5059542;28;20062;-86
2021/10/07 10:10:21;;;;;;;7.68;3.70;;;;;;;;;;5079837;28;20117;-86
2021/10/07 10:12:48;;;;;;;5.10;3.28;;;;;;;;;;5070888;28;20115;-86
2021/10/07 10:15:15;;;;;;;6.40;3.40;;;;;;;;;;5068903;28;20379;-86
2021/10/07 10:17:42;;;;;;;4.85;3.03;;;;;;;;;;5068164;28;20404;-86
2021/10/07 10:20:18;;;;;;;8.05;3.67;;;;;;;;;;5087558;28;20510;-86
2021/10/07 10:22:50;;;;;;;5.25;4.00;;;;;;;;;;5066559;28;20056;-86
2021/10/07 10:25:17;;;;;;;4.43;3.75;;;;;;;;;;5070796;28;20111;-87
2021/10/07 10:27:46;;;;;;;4.88;3.97;;;;;;;;;;5069111;28;20053;-85
2021/10/07 10:30:28;;;;;;;4.25;3.85;;;;;;;;;;5072580;28;20163;-85
2021/10/07 10:32:58;;;;;;;4.88;3.47;;;;;;;;;;5082873;28;20132;-84
2021/10/07 10:35:41;;;;;;;6.22;3.60;;;;;;;;;;5068678;28;20094;-86
2021/10/07 10:38:11;;;;;;;6.75;4.70;;;;;;;;;;5089432;28;20109;-86
2021/10/07 10:40:38;;;;;;;5.20;4.38;;;;;;;;;;5067553;28;20063;-84
2021/10/07 10:43:29;;;;;;;5.78;4.18;;;;;;;;;;5063777;28;20056;-85
2021/10/07 10:46:10;;;;;;;6.10;4.38;;;;;;;;;;5047738;28;20393;-85
2021/10/07 10:48:49;;;;;;;5.18;3.28;;;;;;;;;;5042867;28;20602;-85
2021/10/07 10:51:16;;;;;;;7.82;3.97;;;;;;;;;;5044227;28;20243;-84
2021/10/07 10:54:18;;;;;;;4.72;3.38;;;;;;;;;;5065968;28;20044;-85
2021/10/07 10:56:58;;;;;;;10.30;4.13;;;;;;;;;;4951266;28;20047;-86
2021/10/07 10:59:26;;;;;;;6.55;3.47;;;;;;;;;;5038197;28;20047;-85
2021/10/07 11:02:12;;;;;;;3.42;2.60;;;;;;;;;;5052769;28;20044;-85
2021/10/07 11:04:46;;;;;;;2.80;2.30;;;;;;;;;;5085773;28;20058;-85
2021/10/07 11:07:20;;;;;;;4.07;2.72;;;;;;;;;;5068184;28;20052;-85
2021/10/07 11:09:59;;;;;;;5.18;2.55;;;;;;;;;;5088585;28;20052;-85
2021/10/07 11:12:55;;;;;;;4.25;3.00;;;;;;;;;;5088086;28;20048;-85
2021/10/07 11:15:24;;;;;;;4.25;3.53;;;;;;;;;;5069036;28;20315;-85
2021/10/07 11:17:58;;;;;;;3.60;3.00;;;;;;;;;;5088076;28;20052;-86
2021/10/07 11:20:33;;;;;;;;;;;;;;;;;;5072531;28;20052;-84
2021/10/07 11:23:19;;;;;;;2.30;1.25;;;;;;;;;;5076016;28;19930;-86
2021/10/07 11:26:19;;;;;;;5.57;1.52;;;;;;;;;;5078776;28;20112;-86
2021/10/07 11:29:18;;;;;;;3.90;1.60;;;;;;;;;;5076235;28;20218;-85
2021/10/07 11:32:10;;;;;;;3.78;2.45;;;;;;;;;;5075766;28;20159;-85
2021/10/07 11:35:22;;;;;;;4.40;2.42;;;;;;;;;;5070813;28;20059;-85
2021/10/07 11:38:19;;;;;;;;;;;;;;;;;;;;;
2021/10/07 11:41:10;;;;;;;3.25;2.28;;;;;;;;;;5072409;28;20236;-85
2021/10/07 11:44:00;;;;;;;2.47;1.95;;;;;;;;;;5051846;28;20044;-85
2021/10/07 11:46:41;;;;;;;3.17;2.40;;;;;;;;;;5068729;28;20112;-83
2021/10/07 11:49:35;;;;;;;3.30;2.00;;;;;;;;;;5051459;28;20055;-84
2021/10/07 11:52:13;;;;;;;2.83;2.05;;;;;;;;;;5054980;28;20068;-84
2021/10/07 11:54:55;;;;;;;2.85;1.95;;;;;;;;;;5073262;28;20056;-84
2021/10/07 11:57:32;;;;;;;2.78;2.50;;;;;;;;;;5069634;28;20080;-85
2021/10/07 12:00:04;;;;;;;3.67;2.88;;;;;;;;;;5086850;28;20408;-84
2021/10/07 12:02:51;;;;;;;4.63;2.95;;;;;;;;;;5085246;28;20554;-83
2021/10/07 12:05:21;;;;;;;3.35;2.80;;;;;;;;;;5069589;28;20105;-83
2021/10/07 12:08:19;;;;;;;4.15;2.53;;;;;;;;;;5084883;28;20056;-83
2021/10/07 12:11:16;;;;;;;4.05;2.78;;;;;;;;;;5018798;28;20218;-85
2021/10/07 12:13:48;;;;;;;4.90;2.47;;;;;;;;;;5056677;28;20052;-84
2021/10/07 12:16:21;;;;;;;5.82;2.78;;;;;;;;;;5074018;28;20058;-84
2021/10/07 12:19:31;;;;;;;4.65;2.85;;;;;;;;;;5094383;28;20079;-86
2021/10/07 12:22:24;;;;;;;2.90;2.50;;;;;;;;;;5091944;28;20212;-84
2021/10/07 12:25:03;;;;;;;4.13;2.50;;;;;;;;;;5076114;28;20051;-83
2021/10/07 12:27:34;;;;;;;4.20;2.83;;;;;;;;;;5083446;28;20055;-84
2021/10/07 12:30:06;;;;;;;3.17;2.55;;;;;;;;;;5073829;28;20098;-83
2021/10/07 12:32:35;;;;;;;2.72;2.45;;;;;;;;;;5103219;28;20064;-83
2021/10/07 12:35:23;;;;;;;3.85;2.00;;;;;;;;;;5091613;28;20219;-84
2021/10/07 12:37:56;;;;;;;2.55;2.13;;;;;;;;;;5083570;28;20108;-83
2021/10/07 12:40:27;;;;;;;2.58;2.22;;;;;;;;;;5082072;28;20106;-83
2021/10/07 12:43:13;;;;;;;3.30;2.10;;;;;;;;;;5080127;28;20047;-83
2021/10/07 12:46:10;;;;;;;3.85;2.60;;;;;;;;;;5065521;28;20135;-84
2021/10/07 12:48:45;;;;;;;2.58;1.88;;;;;;;;;;5075219;28;20052;-85
2021/10/07 12:51:14;;;;;;;2.17;1.52;;;;;;;;;;5061597;28;20052;-83
2021/10/07 12:54:19;;;;;;;2.67;2.22;;;;;;;;;;5059858;28;20052;-85
2021/10/07 12:56:59;;;;;;;2.63;1.90;;;;;;;;;;5065669;28;20283;-83
2021/10/07 13:00:00;;;;;;;3.83;1.88;;;;;;;;;;5066773;28;20083;-84
2021/10/07 13:02:37;;;;;;;3.58;1.70;;;;;;;;;;5082493;28;20568;-84
2021/10/07 13:05:24;;;;;;;2.50;1.88;;;;;;;;;;5063467;28;20068;-83
2021/10/07 13:08:05;;;;;;;6.00;2.30;;;;;;;;;;5060042;28;20078;-83
2021/10/07 13:10:39;;;;;;;7.30;2.30;;;;;;;;;;5040517;28;20084;-84
2021/10/07 13:13:08;;;;;;;3.53;1.90;;;;;;;;;;5052703;28;20486;-83
2021/10/07 13:15:39;;;;;;;6.15;2.58;;;;;;;;;;5061607;28;20072;-84
2021/10/07 13:18:09;;;;;;;5.15;2.88;;;;;;;;;;5058051;28;20313;-84
2021/10/07 13:20:38;;;;;;;5.05;2.55;;;;;;;;;;5054334;28;20079;-84
2021/10/07 13:23:16;;;;;;;5.38;2.10;;;;;;;;;;5056329;28;20247;-85
2021/10/07 13:25:45;;;;;;;4.03;2.35;;;;;;;;;;5051341;28;20476;-84
2021/10/07 13:28:14;;;;;;;3.40;1.92;;;;;;;;;;5044449;28;20562;-84
2021/10/07 13:30:50;;;;;;;4.90;2.40;;;;;;;;;;5050983;28;20073;-83
2021/10/07 13:33:16;;;;;;;5.13;1.80;;;;;;;;;;5048043;28;20153;-84
2021/10/07 13:35:51;;;;;;;2.50;2.03;;;;;;;;;;5060968;28;20123;-82
2021/10/07 13:38:41;;;;;;;4.38;2.45;;;;;;;;;;5063609;28;20430;-83
2021/10/07 13:41:27;;;;;;;10.20;3.00;;;;;;;;;;5062999;28;20056;-83
2021/10/07 13:44:01;;;;;;;4.32;2.20;;;;;;;;;;5057769;28;20049;-83
2021/10/07 13:46:35;;;;;;;2.92;2.33;;;;;;;;;;5041577;28;20234;-83
2021/10/07 13:49:24;;;;;;;2.70;2.40;;;;;;;;;;5053104;28;20121;-84
2021/10/07 13:51:58;;;;;;;4.20;2.65;;;;;;;;;;5064317;28;20148;-84
2021/10/07 13:54:48;;;;;;;16.17;3.25;;;;;;;;;;4989408;28;20056;-84
2021/10/07 13:57:20;;;;;;;4.97;2.33;;;;;;;;;;5002922;28;20385;-84
2021/10/07 13:59:49;;;;;;;4.28;2.58;;;;;;;;;;4982751;28;20195;-84
2021/10/07 14:02:31;;;;;;;2.80;2.33;;;;;;;;;;4985717;28;20046;-85
2021/10/07 14:05:12;;;;;;;4.55;3.30;;;;;;;;;;4990823;28;20115;-83
2021/10/07 14:07:39;;;;;;;3.60;2.90;;;;;;;;;;4981204;28;20158;-83
2021/10/07 14:10:11;;;;;;;3.60;2.33;;;;;;;;;;4977553;28;20066;-84
2021/10/07 14:12:50;;;;;;;4.38;2.90;;;;;;;;;;4983574;28;20115;-85
2021/10/07 14:15:29;;;;;;;5.53;2.97;;;;;;;;;;4984498;28;20057;-84
2021/10/07 14:18:08;;;;;;;5.07;3.28;;;;;;;;;;4963545;28;20316;-84
2021/10/07 14:20:42;;;;;;;7.50;2.78;;;;;;;;;;4963271;28;20089;-84
2021/10/07 14:23:16;;;;;;;8.88;3.65;;;;;;;;;;4993873;28;20154;-84
2021/10/07 14:25:49;;;;;;;5.90;4.15;;;;;;;;;;4998080;28;20390;-84
2021/10/07 14:28:24;;;;;;;4.00;3.60;;;;;;;;;;4973341;28;20246;-84
2021/10/07 14:30:51;;;;;;;15.45;3.83;;;;;;;;;;5007197;28;20107;-84
2021/10/07 14:33:23;;;;;;;7.93;4.65;;;;;;;;;;5059073;28;20466;-84
2021/10/07 14:35:53;;;;;;;6.93;3.63;;;;;;;;;;5061159;28;20106;-84
2021/10/07 14:38:23;;;;;;;7.13;3.92;;;;;;;;;;5062502;28;20160;-84
2021/10/07 14:40:54;;;;;;;5.32;4.35;;;;;;;;;;5055671;28;20148;-84
2021/10/07 14:43:45;;;;;;;3.25;2.95;;;;;;;;;;5074848;28;20037;-84
2021/10/07 14:46:13;;;;;;;5.78;4.55;;;;;;;;;;5072664;28;20049;-83
2021/10/07 14:48:41;;;;;;;6.95;4.18;;;;;;;;;;5057359;28;20591;-83
2021/10/07 14:51:11;;;;;;;6.35;3.90;;;;;;;;;;5037962;28;20110;-83
2021/10/07 14:53:53;;;;;;;4.95;3.53;;;;;;;;;;5047879;28;20352;-84
2021/10/07 14:56:24;;;;;;;4.85;3.58;;;;;;;;;;5050162;28;20222;-84
2021/10/07 14:59:04;;;;;;;4.25;3.80;;;;;;;;;;5050006;28;20160;-84
2021/10/07 15:01:48;;;;;;;5.10;3.35;;;;;;;;;;5045562;28;20139;-83
2021/10/07 15:04:35;;;;;;;5.82;3.63;;;;;;;;;;5058544;28;20424;-84
2021/10/07 15:07:06;;;;;;;4.80;3.72;;;;;;;;;;5058936;28;20095;-84
2021/10/07 15:09:43;;;;;;;6.07;3.55;;;;;;;;;;5051757;28;20147;-84
2021/10/07 15:12:22;;;;;;;3.80;3.40;;;;;;;;;;5064728;28;20075;-84
2021/10/07 15:14:58;;;;;;;4.25;3.40;;;;;;;;;;5061907;28;20151;-84
2021/10/07 15:17:34;;;;;;;4.43;3.10;;;;;;;;;;5061145;28;20117;-83
2021/10/07 15:20:11;;;;;;;4.55;3.38;;;;;;;;;;5065274;28;20051;-84
2021/10/07 15:22:39;;;;;;;3.60;3.10;;;;;;;;;;5067635;28;20053;-83